sensor_id;sensor_type;location;lat;lon;timestamp;P1;durP1;ratioP1;P2;durP2;ratioP2
75152;SDS011;63734;45.218;36.708;2022-11-14T00:00:19;6.07;;;3.45;;
75152;SDS011;63734;45.218;36.708;2022-11-14T00:03:05;6.88;;;3.53;;
75152;SDS011;63734;45.218;36.708;2022-11-14T00:05:50;8.23;;;3.78;;
75152;SDS011;63734;45.218;36.708;2022-11-14T00:08:35;5.72;;;3.60;;
75152;SDS011;63734;45.218;36.708;2022-11-14T00:11:19;8.07;;;3.78;;
75152;SDS011;63734;45.218;36.708;2022-11-14T00:14:04;6.93;;;3.50;;
75152;SDS011;63734;45.218;36.708;2022-11-14T00:16:48;7.72;;;3.75;;
75152;SDS011;63734;45.218;36.708;2022-11-14T00:19:33;5.38;;;3.13;;
75152;SDS011;63734;45.218;36.708;2022-11-14T00:22:17;4.90;;;3.03;;
75152;SDS011;63734;45.218;36.708;2022-11-14T00:25:02;5.50;;;3.38;;
75152;SDS011;63734;45.218;36.708;2022-11-14T00:27:46;5.28;;;3.28;;
75152;SDS011;63734;45.218;36.708;2022-11-14T00:30:31;5.50;;;3.00;;
75152;SDS011;63734;45.218;36.708;2022-11-14T00:33:17;4.43;;;2.80;;
75152;SDS011;63734;45.218;36.708;2022-11-14T00:36:03;6.18;;;3.13;;
75152;SDS011;63734;45.218;36.708;2022-11-14T00:38:50;6.47;;;3.13;;
75152;SDS011;63734;45.218;36.708;2022-11-14T00:41:36;3.55;;;2.50;;
75152;SDS011;63734;45.218;36.708;2022-11-14T00:44:21;4.95;;;2.55;;
75152;SDS011;63734;45.218;36.708;2022-11-14T00:47:05;3.83;;;2.55;;
75152;SDS011;63734;45.218;36.708;2022-11-14T00:49:50;4.40;;;2.70;;
75152;SDS011;63734;45.218;36.708;2022-11-14T00:52:34;5.40;;;3.42;;
75152;SDS011;63734;45.218;36.708;2022-11-14T00:55:19;3.83;;;2.08;;
75152;SDS011;63734;45.218;36.708;2022-11-14T00:58:03;6.95;;;2.80;;
75152;SDS011;63734;45.218;36.708;2022-11-14T01:00:48;5.28;;;2.60;;
75152;SDS011;63734;45.218;36.708;2022-11-14T01:03:32;2.45;;;2.05;;
75152;SDS011;63734;45.218;36.708;2022-11-14T01:06:17;3.90;;;2.67;;
75152;SDS011;63734;45.218;36.708;2022-11-14T01:09:02;2.80;;;1.95;;
75152;SDS011;63734;45.218;36.708;2022-11-14T01:11:46;5.50;;;2.92;;
75152;SDS011;63734;45.218;36.708;2022-11-14T01:14:31;3.80;;;1.80;;
75152;SDS011;63734;45.218;36.708;2022-11-14T01:17:15;5.32;;;2.60;;
75152;SDS011;63734;45.218;36.708;2022-11-14T01:19:59;4.70;;;2.42;;
75152;SDS011;63734;45.218;36.708;2022-11-14T01:22:44;4.22;;;3.05;;
75152;SDS011;63734;45.218;36.708;2022-11-14T01:25:28;5.45;;;3.13;;
75152;SDS011;63734;45.218;36.708;2022-11-14T01:28:15;3.50;;;2.00;;
75152;SDS011;63734;45.218;36.708;2022-11-14T01:33:59;6.00;;;2.70;;
75152;SDS011;63734;45.218;36.708;2022-11-14T01:36:44;4.95;;;2.90;;
75152;SDS011;63734;45.218;36.708;2022-11-14T01:39:28;4.50;;;2.17;;
75152;SDS011;63734;45.218;36.708;2022-11-14T01:42:12;4.30;;;2.33;;
75152;SDS011;63734;45.218;36.708;2022-11-14T01:44:57;2.75;;;2.00;;
75152;SDS011;63734;45.218;36.708;2022-11-14T01:47:42;2.63;;;1.90;;
75152;SDS011;63734;45.218;36.708;2022-11-14T01:50:26;4.75;;;2.80;;
75152;SDS011;63734;45.218;36.708;2022-11-14T01:53:11;3.53;;;2.05;;
75152;SDS011;63734;45.218;36.708;2022-11-14T01:55:57;4.75;;;2.72;;
75152;SDS011;63734;45.218;36.708;2022-11-14T01:58:45;7.95;;;2.65;;
75152;SDS011;63734;45.218;36.708;2022-11-14T02:01:35;5.13;;;2.63;;
75152;SDS011;63734;45.218;36.708;2022-11-14T02:04:27;3.80;;;2.47;;
75152;SDS011;63734;45.218;36.708;2022-11-14T02:07:16;6.80;;;2.63;;
75152;SDS011;63734;45.218;36.708;2022-11-14T02:10:04;7.40;;;2.80;;
75152;SDS011;63734;45.218;36.708;2022-11-14T02:12:52;3.65;;;2.35;;
75152;SDS011;63734;45.218;36.708;2022-11-14T02:15:37;4.53;;;2.83;;
75152;SDS011;63734;45.218;36.708;2022-11-14T02:18:22;3.55;;;2.20;;
75152;SDS011;63734;45.218;36.708;2022-11-14T02:21:06;4.20;;;2.33;;
75152;SDS011;63734;45.218;36.708;2022-11-14T02:23:50;7.18;;;2.60;;
75152;SDS011;63734;45.218;36.708;2022-11-14T02:26:35;3.85;;;2.90;;
75152;SDS011;63734;45.218;36.708;2022-11-14T02:29:20;4.57;;;2.70;;
75152;SDS011;63734;45.218;36.708;2022-11-14T02:32:05;6.45;;;2.97;;
75152;SDS011;63734;45.218;36.708;2022-11-14T02:34:49;5.10;;;2.83;;
75152;SDS011;63734;45.218;36.708;2022-11-14T02:37:34;6.28;;;3.60;;
75152;SDS011;63734;45.218;36.708;2022-11-14T02:40:18;6.45;;;3.45;;
75152;SDS011;63734;45.218;36.708;2022-11-14T02:43:03;5.15;;;3.13;;
75152;SDS011;63734;45.218;36.708;2022-11-14T02:45:47;4.75;;;2.72;;
75152;SDS011;63734;45.218;36.708;2022-11-14T02:48:31;6.57;;;2.95;;
75152;SDS011;63734;45.218;36.708;2022-11-14T02:51:16;6.85;;;3.67;;
75152;SDS011;63734;45.218;36.708;2022-11-14T02:54:00;7.72;;;3.38;;
75152;SDS011;63734;45.218;36.708;2022-11-14T02:56:45;4.53;;;3.03;;
75152;SDS011;63734;45.218;36.708;2022-11-14T02:59:29;4.00;;;2.75;;
75152;SDS011;63734;45.218;36.708;2022-11-14T03:02:14;7.60;;;3.50;;
75152;SDS011;63734;45.218;36.708;2022-11-14T03:04:58;5.50;;;3.42;;
75152;SDS011;63734;45.218;36.708;2022-11-14T03:07:43;5.32;;;3.00;;
75152;SDS011;63734;45.218;36.708;2022-11-14T03:10:27;9.68;;;3.03;;
75152;SDS011;63734;45.218;36.708;2022-11-14T03:13:12;4.93;;;2.67;;
75152;SDS011;63734;45.218;36.708;2022-11-14T03:15:56;6.72;;;4.28;;
75152;SDS011;63734;45.218;36.708;2022-11-14T03:18:41;9.23;;;4.45;;
75152;SDS011;63734;45.218;36.708;2022-11-14T03:21:25;11.23;;;4.90;;
75152;SDS011;63734;45.218;36.708;2022-11-14T03:24:10;7.03;;;4.32;;
75152;SDS011;63734;45.218;36.708;2022-11-14T03:26:54;8.02;;;4.70;;
75152;SDS011;63734;45.218;36.708;2022-11-14T03:29:39;11.70;;;4.53;;
75152;SDS011;63734;45.218;36.708;2022-11-14T03:32:23;8.35;;;4.32;;
75152;SDS011;63734;45.218;36.708;2022-11-14T03:35:08;7.20;;;3.75;;
75152;SDS011;63734;45.218;36.708;2022-11-14T03:37:53;8.85;;;4.30;;
75152;SDS011;63734;45.218;36.708;2022-11-14T03:40:40;7.25;;;4.20;;
75152;SDS011;63734;45.218;36.708;2022-11-14T03:43:25;8.38;;;5.07;;
75152;SDS011;63734;45.218;36.708;2022-11-14T03:46:13;8.52;;;3.65;;
75152;SDS011;63734;45.218;36.708;2022-11-14T03:48:57;11.18;;;4.65;;
75152;SDS011;63734;45.218;36.708;2022-11-14T03:51:41;7.68;;;4.30;;
75152;SDS011;63734;45.218;36.708;2022-11-14T03:54:26;11.40;;;4.85;;
75152;SDS011;63734;45.218;36.708;2022-11-14T03:57:10;12.38;;;5.95;;
75152;SDS011;63734;45.218;36.708;2022-11-14T03:59:55;10.32;;;5.50;;
75152;SDS011;63734;45.218;36.708;2022-11-14T04:02:39;26.08;;;7.28;;
75152;SDS011;63734;45.218;36.708;2022-11-14T04:05:24;11.70;;;5.50;;
75152;SDS011;63734;45.218;36.708;2022-11-14T04:08:08;11.80;;;5.43;;
75152;SDS011;63734;45.218;36.708;2022-11-14T04:10:53;8.40;;;5.13;;
75152;SDS011;63734;45.218;36.708;2022-11-14T04:13:37;10.52;;;6.03;;
75152;SDS011;63734;45.218;36.708;2022-11-14T04:16:22;11.32;;;6.90;;
75152;SDS011;63734;45.218;36.708;2022-11-14T04:19:06;12.13;;;7.13;;
75152;SDS011;63734;45.218;36.708;2022-11-14T04:21:50;12.20;;;6.45;;
75152;SDS011;63734;45.218;36.708;2022-11-14T04:24:35;13.35;;;7.03;;
75152;SDS011;63734;45.218;36.708;2022-11-14T04:27:19;14.50;;;7.50;;
75152;SDS011;63734;45.218;36.708;2022-11-14T04:30:04;15.18;;;6.38;;
75152;SDS011;63734;45.218;36.708;2022-11-14T04:32:49;14.52;;;7.55;;
75152;SDS011;63734;45.218;36.708;2022-11-14T04:35:33;13.50;;;7.03;;
75152;SDS011;63734;45.218;36.708;2022-11-14T04:38:18;14.38;;;7.38;;
75152;SDS011;63734;45.218;36.708;2022-11-14T04:41:02;12.90;;;7.72;;
75152;SDS011;63734;45.218;36.708;2022-11-14T04:43:47;12.98;;;7.25;;
75152;SDS011;63734;45.218;36.708;2022-11-14T04:46:31;14.63;;;7.78;;
75152;SDS011;63734;45.218;36.708;2022-11-14T04:49:15;15.57;;;7.93;;
75152;SDS011;63734;45.218;36.708;2022-11-14T04:52:00;12.20;;;6.80;;
75152;SDS011;63734;45.218;36.708;2022-11-14T04:54:44;10.55;;;5.60;;
75152;SDS011;63734;45.218;36.708;2022-11-14T04:57:29;12.18;;;6.13;;
75152;SDS011;63734;45.218;36.708;2022-11-14T05:00:13;16.55;;;8.20;;
75152;SDS011;63734;45.218;36.708;2022-11-14T05:02:58;15.52;;;7.80;;
75152;SDS011;63734;45.218;36.708;2022-11-14T05:05:43;17.08;;;7.63;;
75152;SDS011;63734;45.218;36.708;2022-11-14T05:08:27;12.60;;;6.95;;
75152;SDS011;63734;45.218;36.708;2022-11-14T05:11:16;13.38;;;6.65;;
75152;SDS011;63734;45.218;36.708;2022-11-14T05:14:02;16.65;;;8.90;;
75152;SDS011;63734;45.218;36.708;2022-11-14T05:16:46;14.52;;;7.07;;
75152;SDS011;63734;45.218;36.708;2022-11-14T05:19:31;11.43;;;6.57;;
75152;SDS011;63734;45.218;36.708;2022-11-14T05:22:15;15.10;;;8.40;;
75152;SDS011;63734;45.218;36.708;2022-11-14T05:24:59;11.68;;;6.82;;
75152;SDS011;63734;45.218;36.708;2022-11-14T05:27:44;14.50;;;6.78;;
75152;SDS011;63734;45.218;36.708;2022-11-14T05:30:28;10.23;;;6.20;;
75152;SDS011;63734;45.218;36.708;2022-11-14T05:33:13;12.73;;;6.70;;
75152;SDS011;63734;45.218;36.708;2022-11-14T05:36:02;10.85;;;7.18;;
75152;SDS011;63734;45.218;36.708;2022-11-14T05:38:50;14.07;;;7.07;;
75152;SDS011;63734;45.218;36.708;2022-11-14T05:41:35;15.70;;;7.90;;
75152;SDS011;63734;45.218;36.708;2022-11-14T05:44:19;15.23;;;8.30;;
75152;SDS011;63734;45.218;36.708;2022-11-14T05:47:04;16.00;;;7.40;;
75152;SDS011;63734;45.218;36.708;2022-11-14T05:49:48;15.57;;;7.68;;
75152;SDS011;63734;45.218;36.708;2022-11-14T05:52:33;16.15;;;8.20;;
75152;SDS011;63734;45.218;36.708;2022-11-14T05:55:17;17.02;;;8.75;;
75152;SDS011;63734;45.218;36.708;2022-11-14T05:58:02;18.55;;;9.18;;
75152;SDS011;63734;45.218;36.708;2022-11-14T06:00:46;13.85;;;8.55;;
75152;SDS011;63734;45.218;36.708;2022-11-14T06:03:35;16.52;;;9.65;;
75152;SDS011;63734;45.218;36.708;2022-11-14T06:06:21;17.63;;;8.40;;
75152;SDS011;63734;45.218;36.708;2022-11-14T06:09:06;17.08;;;7.25;;
75152;SDS011;63734;45.218;36.708;2022-11-14T06:11:50;12.60;;;7.85;;
75152;SDS011;63734;45.218;36.708;2022-11-14T06:14:35;9.50;;;5.90;;
75152;SDS011;63734;45.218;36.708;2022-11-14T06:17:19;14.32;;;7.22;;
75152;SDS011;63734;45.218;36.708;2022-11-14T06:20:04;12.82;;;7.70;;
75152;SDS011;63734;45.218;36.708;2022-11-14T06:22:48;14.40;;;8.20;;
75152;SDS011;63734;45.218;36.708;2022-11-14T06:25:37;15.63;;;9.02;;
75152;SDS011;63734;45.218;36.708;2022-11-14T06:28:21;17.33;;;9.10;;
75152;SDS011;63734;45.218;36.708;2022-11-14T06:31:06;15.20;;;7.97;;
75152;SDS011;63734;45.218;36.708;2022-11-14T06:33:50;15.00;;;9.05;;
75152;SDS011;63734;45.218;36.708;2022-11-14T06:36:36;9.32;;;5.75;;
75152;SDS011;63734;45.218;36.708;2022-11-14T06:39:20;16.10;;;7.07;;
75152;SDS011;63734;45.218;36.708;2022-11-14T06:42:05;16.10;;;9.18;;
75152;SDS011;63734;45.218;36.708;2022-11-14T06:44:50;18.33;;;8.88;;
75152;SDS011;63734;45.218;36.708;2022-11-14T06:47:34;17.38;;;8.20;;
75152;SDS011;63734;45.218;36.708;2022-11-14T06:50:18;14.68;;;8.95;;
75152;SDS011;63734;45.218;36.708;2022-11-14T06:53:03;17.40;;;6.95;;
75152;SDS011;63734;45.218;36.708;2022-11-14T06:55:54;8.07;;;5.53;;
75152;SDS011;63734;45.218;36.708;2022-11-14T06:58:41;9.63;;;6.57;;
75152;SDS011;63734;45.218;36.708;2022-11-14T07:01:29;9.70;;;5.30;;
75152;SDS011;63734;45.218;36.708;2022-11-14T07:04:13;15.35;;;8.02;;
75152;SDS011;63734;45.218;36.708;2022-11-14T07:06:58;13.40;;;7.78;;
75152;SDS011;63734;45.218;36.708;2022-11-14T07:09:42;15.60;;;7.50;;
75152;SDS011;63734;45.218;36.708;2022-11-14T07:12:27;10.48;;;6.22;;
75152;SDS011;63734;45.218;36.708;2022-11-14T07:15:12;14.57;;;8.77;;
75152;SDS011;63734;45.218;36.708;2022-11-14T07:17:57;10.68;;;6.75;;
75152;SDS011;63734;45.218;36.708;2022-11-14T07:20:41;14.85;;;8.18;;
75152;SDS011;63734;45.218;36.708;2022-11-14T07:23:26;16.67;;;8.00;;
75152;SDS011;63734;45.218;36.708;2022-11-14T07:26:10;17.02;;;8.77;;
75152;SDS011;63734;45.218;36.708;2022-11-14T07:28:55;10.98;;;6.80;;
75152;SDS011;63734;45.218;36.708;2022-11-14T07:31:39;14.75;;;9.18;;
75152;SDS011;63734;45.218;36.708;2022-11-14T07:34:24;17.95;;;10.13;;
75152;SDS011;63734;45.218;36.708;2022-11-14T07:37:08;16.00;;;10.48;;
75152;SDS011;63734;45.218;36.708;2022-11-14T07:39:53;18.88;;;10.40;;
75152;SDS011;63734;45.218;36.708;2022-11-14T07:42:37;16.02;;;9.30;;
75152;SDS011;63734;45.218;36.708;2022-11-14T07:45:22;10.80;;;6.82;;
75152;SDS011;63734;45.218;36.708;2022-11-14T07:48:06;14.70;;;7.45;;
75152;SDS011;63734;45.218;36.708;2022-11-14T07:50:51;12.48;;;7.78;;
75152;SDS011;63734;45.218;36.708;2022-11-14T07:53:36;8.77;;;5.70;;
75152;SDS011;63734;45.218;36.708;2022-11-14T07:56:20;9.13;;;5.68;;
75152;SDS011;63734;45.218;36.708;2022-11-14T07:59:05;10.73;;;7.07;;
75152;SDS011;63734;45.218;36.708;2022-11-14T08:01:49;6.93;;;4.47;;
75152;SDS011;63734;45.218;36.708;2022-11-14T08:04:34;10.85;;;5.88;;
75152;SDS011;63734;45.218;36.708;2022-11-14T08:07:18;10.48;;;5.90;;
75152;SDS011;63734;45.218;36.708;2022-11-14T08:10:03;14.50;;;7.07;;
75152;SDS011;63734;45.218;36.708;2022-11-14T08:12:55;11.15;;;6.53;;
75152;SDS011;63734;45.218;36.708;2022-11-14T08:15:42;10.45;;;5.78;;
75152;SDS011;63734;45.218;36.708;2022-11-14T08:18:27;10.93;;;7.28;;
75152;SDS011;63734;45.218;36.708;2022-11-14T08:21:11;11.23;;;7.25;;
75152;SDS011;63734;45.218;36.708;2022-11-14T08:23:56;12.80;;;7.28;;
75152;SDS011;63734;45.218;36.708;2022-11-14T08:26:40;14.73;;;6.75;;
75152;SDS011;63734;45.218;36.708;2022-11-14T08:29:25;10.55;;;7.25;;
75152;SDS011;63734;45.218;36.708;2022-11-14T08:32:09;11.43;;;7.40;;
75152;SDS011;63734;45.218;36.708;2022-11-14T08:34:54;9.75;;;6.53;;
75152;SDS011;63734;45.218;36.708;2022-11-14T08:37:38;11.32;;;6.55;;
75152;SDS011;63734;45.218;36.708;2022-11-14T08:40:23;9.98;;;5.25;;
75152;SDS011;63734;45.218;36.708;2022-11-14T08:43:07;8.48;;;4.65;;
75152;SDS011;63734;45.218;36.708;2022-11-14T08:45:57;12.07;;;5.93;;
75152;SDS011;63734;45.218;36.708;2022-11-14T08:48:43;8.95;;;5.57;;
75152;SDS011;63734;45.218;36.708;2022-11-14T08:51:27;11.98;;;7.45;;
75152;SDS011;63734;45.218;36.708;2022-11-14T08:54:12;9.88;;;6.20;;
75152;SDS011;63734;45.218;36.708;2022-11-14T08:56:56;8.40;;;5.85;;
75152;SDS011;63734;45.218;36.708;2022-11-14T08:59:41;10.18;;;6.50;;
75152;SDS011;63734;45.218;36.708;2022-11-14T09:02:28;6.72;;;4.18;;
75152;SDS011;63734;45.218;36.708;2022-11-14T09:05:13;8.55;;;6.50;;
75152;SDS011;63734;45.218;36.708;2022-11-14T09:07:58;10.25;;;5.75;;
75152;SDS011;63734;45.218;36.708;2022-11-14T09:10:42;13.45;;;6.78;;
75152;SDS011;63734;45.218;36.708;2022-11-14T09:13:26;10.75;;;6.35;;
75152;SDS011;63734;45.218;36.708;2022-11-14T09:16:11;8.73;;;5.60;;
75152;SDS011;63734;45.218;36.708;2022-11-14T09:18:55;7.85;;;5.20;;
75152;SDS011;63734;45.218;36.708;2022-11-14T09:21:40;9.45;;;5.40;;
75152;SDS011;63734;45.218;36.708;2022-11-14T09:24:24;10.98;;;7.30;;
75152;SDS011;63734;45.218;36.708;2022-11-14T09:27:09;11.50;;;7.22;;
75152;SDS011;63734;45.218;36.708;2022-11-14T09:29:53;11.02;;;6.22;;
75152;SDS011;63734;45.218;36.708;2022-11-14T09:32:38;12.60;;;6.72;;
75152;SDS011;63734;45.218;36.708;2022-11-14T09:35:22;8.43;;;6.13;;
75152;SDS011;63734;45.218;36.708;2022-11-14T09:38:08;9.27;;;6.43;;
75152;SDS011;63734;45.218;36.708;2022-11-14T09:47:16;11.52;;;6.30;;
75152;SDS011;63734;45.218;36.708;2022-11-14T09:50:10;8.75;;;5.90;;
75152;SDS011;63734;45.218;36.708;2022-11-14T09:52:58;8.13;;;5.07;;
75152;SDS011;63734;45.218;36.708;2022-11-14T09:55:48;10.15;;;6.13;;
75152;SDS011;63734;45.218;36.708;2022-11-14T09:58:33;12.18;;;6.97;;
75152;SDS011;63734;45.218;36.708;2022-11-14T10:01:27;10.48;;;6.28;;
75152;SDS011;63734;45.218;36.708;2022-11-14T10:07:45;9.65;;;6.25;;
75152;SDS011;63734;45.218;36.708;2022-11-14T10:10:51;10.23;;;5.88;;
75152;SDS011;63734;45.218;36.708;2022-11-14T10:20:23;10.20;;;5.90;;
75152;SDS011;63734;45.218;36.708;2022-11-14T10:23:25;12.07;;;7.00;;
75152;SDS011;63734;45.218;36.708;2022-11-14T10:26:26;10.32;;;6.95;;
75152;SDS011;63734;45.218;36.708;2022-11-14T10:35:22;15.60;;;8.05;;
75152;SDS011;63734;45.218;36.708;2022-11-14T10:41:28;10.80;;;7.45;;
75152;SDS011;63734;45.218;36.708;2022-11-14T10:44:16;12.32;;;7.63;;
75152;SDS011;63734;45.218;36.708;2022-11-14T10:47:08;12.27;;;7.28;;
75152;SDS011;63734;45.218;36.708;2022-11-14T10:49:57;11.57;;;7.65;;
75152;SDS011;63734;45.218;36.708;2022-11-14T10:52:56;13.02;;;7.97;;
75152;SDS011;63734;45.218;36.708;2022-11-14T10:55:45;13.38;;;8.13;;
75152;SDS011;63734;45.218;36.708;2022-11-14T10:58:35;13.95;;;7.28;;
75152;SDS011;63734;45.218;36.708;2022-11-14T11:01:36;13.98;;;7.97;;
75152;SDS011;63734;45.218;36.708;2022-11-14T11:04:38;11.60;;;7.28;;
75152;SDS011;63734;45.218;36.708;2022-11-14T11:07:26;11.43;;;7.57;;
75152;SDS011;63734;45.218;36.708;2022-11-14T11:10:30;12.45;;;7.47;;
75152;SDS011;63734;45.218;36.708;2022-11-14T11:13:36;11.35;;;7.00;;
75152;SDS011;63734;45.218;36.708;2022-11-14T11:16:30;12.93;;;7.90;;
75152;SDS011;63734;45.218;36.708;2022-11-14T11:19:22;13.05;;;6.90;;
75152;SDS011;63734;45.218;36.708;2022-11-14T11:22:56;12.55;;;7.68;;
75152;SDS011;63734;45.218;36.708;2022-11-14T11:25:22;12.93;;;7.75;;
75152;SDS011;63734;45.218;36.708;2022-11-14T11:28:18;12.63;;;7.70;;
75152;SDS011;63734;45.218;36.708;2022-11-14T11:31:05;14.20;;;7.93;;
75152;SDS011;63734;45.218;36.708;2022-11-14T11:33:51;13.57;;;8.52;;
75152;SDS011;63734;45.218;36.708;2022-11-14T11:36:40;10.45;;;7.60;;
75152;SDS011;63734;45.218;36.708;2022-11-14T11:39:32;12.23;;;7.38;;
75152;SDS011;63734;45.218;36.708;2022-11-14T11:42:22;13.43;;;7.93;;
75152;SDS011;63734;45.218;36.708;2022-11-14T11:45:13;11.23;;;7.68;;
75152;SDS011;63734;45.218;36.708;2022-11-14T11:48:04;13.82;;;7.80;;
75152;SDS011;63734;45.218;36.708;2022-11-14T11:50:51;11.93;;;7.20;;
75152;SDS011;63734;45.218;36.708;2022-11-14T11:53:37;13.32;;;7.20;;
75152;SDS011;63734;45.218;36.708;2022-11-14T11:56:25;10.40;;;7.22;;
75152;SDS011;63734;45.218;36.708;2022-11-14T12:05:04;12.30;;;7.20;;
75152;SDS011;63734;45.218;36.708;2022-11-14T12:07:54;12.52;;;7.78;;
75152;SDS011;63734;45.218;36.708;2022-11-14T12:10:51;14.18;;;8.02;;
75152;SDS011;63734;45.218;36.708;2022-11-14T12:13:53;12.57;;;7.80;;
75152;SDS011;63734;45.218;36.708;2022-11-14T12:29:43;11.20;;;6.70;;
75152;SDS011;63734;45.218;36.708;2022-11-14T12:32:35;15.27;;;7.47;;
75152;SDS011;63734;45.218;36.708;2022-11-14T12:35:28;13.52;;;7.50;;
75152;SDS011;63734;45.218;36.708;2022-11-14T12:38:15;12.13;;;6.97;;
75152;SDS011;63734;45.218;36.708;2022-11-14T12:41:03;10.55;;;6.50;;
75152;SDS011;63734;45.218;36.708;2022-11-14T12:43:50;10.93;;;7.07;;
75152;SDS011;63734;45.218;36.708;2022-11-14T12:47:21;11.52;;;6.97;;
75152;SDS011;63734;45.218;36.708;2022-11-14T13:01:23;8.10;;;5.30;;
75152;SDS011;63734;45.218;36.708;2022-11-14T13:04:19;9.35;;;5.80;;
75152;SDS011;63734;45.218;36.708;2022-11-14T13:07:32;10.65;;;5.65;;
75152;SDS011;63734;45.218;36.708;2022-11-14T13:10:39;10.18;;;6.20;;
75152;SDS011;63734;45.218;36.708;2022-11-14T13:13:24;9.15;;;5.68;;
75152;SDS011;63734;45.218;36.708;2022-11-14T13:16:30;10.68;;;5.63;;
75152;SDS011;63734;45.218;36.708;2022-11-14T13:19:34;10.05;;;5.20;;
75152;SDS011;63734;45.218;36.708;2022-11-14T13:22:47;9.68;;;4.93;;
75152;SDS011;63734;45.218;36.708;2022-11-14T13:25:31;8.95;;;6.25;;
75152;SDS011;63734;45.218;36.708;2022-11-14T13:31:20;10.00;;;6.10;;
75152;SDS011;63734;45.218;36.708;2022-11-14T13:37:35;11.23;;;6.05;;
75152;SDS011;63734;45.218;36.708;2022-11-14T13:46:51;11.07;;;6.35;;
75152;SDS011;63734;45.218;36.708;2022-11-14T13:52:47;11.48;;;5.75;;
75152;SDS011;63734;45.218;36.708;2022-11-14T13:55:53;8.10;;;5.00;;
75152;SDS011;63734;45.218;36.708;2022-11-14T13:58:48;12.55;;;6.10;;
75152;SDS011;63734;45.218;36.708;2022-11-14T14:01:55;9.95;;;4.72;;
75152;SDS011;63734;45.218;36.708;2022-11-14T14:10:55;10.00;;;5.90;;
75152;SDS011;63734;45.218;36.708;2022-11-14T14:13:58;10.95;;;5.70;;
75152;SDS011;63734;45.218;36.708;2022-11-14T14:23:20;6.50;;;3.75;;
75152;SDS011;63734;45.218;36.708;2022-11-14T14:26:14;5.95;;;3.15;;
75152;SDS011;63734;45.218;36.708;2022-11-14T14:32:14;6.90;;;4.20;;
75152;SDS011;63734;45.218;36.708;2022-11-14T14:35:17;10.13;;;4.35;;
75152;SDS011;63734;45.218;36.708;2022-11-14T14:38:11;622.83;;;238.43;;
75152;SDS011;63734;45.218;36.708;2022-11-14T14:40:57;799.40;;;309.17;;
75152;SDS011;63734;45.218;36.708;2022-11-14T14:43:41;1362.07;;;629.03;;
75152;SDS011;63734;45.218;36.708;2022-11-14T14:46:32;804.75;;;464.20;;
75152;SDS011;63734;45.218;36.708;2022-11-14T14:49:27;473.85;;;269.25;;
75152;SDS011;63734;45.218;36.708;2022-11-14T14:52:29;430.20;;;237.07;;
75152;SDS011;63734;45.218;36.708;2022-11-14T14:55:22;483.13;;;231.90;;
75152;SDS011;63734;45.218;36.708;2022-11-14T15:01:27;420.73;;;223.52;;
75152;SDS011;63734;45.218;36.708;2022-11-14T15:04:18;309.40;;;147.75;;
75152;SDS011;63734;45.218;36.708;2022-11-14T15:07:05;421.10;;;194.10;;
75152;SDS011;63734;45.218;36.708;2022-11-14T15:10:00;177.18;;;85.13;;
75152;SDS011;63734;45.218;36.708;2022-11-14T15:12:46;117.88;;;58.08;;
75152;SDS011;63734;45.218;36.708;2022-11-14T15:15:31;121.30;;;46.13;;
75152;SDS011;63734;45.218;36.708;2022-11-14T15:18:24;302.77;;;118.68;;
75152;SDS011;63734;45.218;36.708;2022-11-14T15:21:15;107.65;;;46.88;;
75152;SDS011;63734;45.218;36.708;2022-11-14T15:27:05;53.75;;;22.55;;
75152;SDS011;63734;45.218;36.708;2022-11-14T15:30:03;59.25;;;25.77;;
75152;SDS011;63734;45.218;36.708;2022-11-14T15:32:50;35.28;;;16.90;;
75152;SDS011;63734;45.218;36.708;2022-11-14T15:35:40;39.15;;;18.50;;
75152;SDS011;63734;45.218;36.708;2022-11-14T15:38:24;38.65;;;17.50;;
75152;SDS011;63734;45.218;36.708;2022-11-14T15:44:00;36.92;;;14.32;;
75152;SDS011;63734;45.218;36.708;2022-11-14T15:46:45;28.40;;;13.52;;
75152;SDS011;63734;45.218;36.708;2022-11-14T15:49:31;30.80;;;13.95;;
75152;SDS011;63734;45.218;36.708;2022-11-14T15:52:17;31.38;;;12.05;;
75152;SDS011;63734;45.218;36.708;2022-11-14T15:55:16;47.15;;;19.67;;
75152;SDS011;63734;45.218;36.708;2022-11-14T15:58:08;47.25;;;18.40;;
75152;SDS011;63734;45.218;36.708;2022-11-14T16:00:54;32.05;;;13.27;;
75152;SDS011;63734;45.218;36.708;2022-11-14T16:03:39;32.33;;;13.30;;
75152;SDS011;63734;45.218;36.708;2022-11-14T16:06:27;15.20;;;7.55;;
75152;SDS011;63734;45.218;36.708;2022-11-14T16:09:16;14.90;;;6.13;;
75152;SDS011;63734;45.218;36.708;2022-11-14T16:12:02;11.15;;;5.78;;
75152;SDS011;63734;45.218;36.708;2022-11-14T16:14:46;11.45;;;6.53;;
75152;SDS011;63734;45.218;36.708;2022-11-14T16:17:33;11.65;;;5.30;;
75152;SDS011;63734;45.218;36.708;2022-11-14T16:20:24;11.25;;;5.63;;
75152;SDS011;63734;45.218;36.708;2022-11-14T16:23:11;11.18;;;6.20;;
75152;SDS011;63734;45.218;36.708;2022-11-14T16:25:58;11.07;;;5.93;;
75152;SDS011;63734;45.218;36.708;2022-11-14T16:28:44;11.82;;;5.45;;
75152;SDS011;63734;45.218;36.708;2022-11-14T16:31:28;9.48;;;5.38;;
75152;SDS011;63734;45.218;36.708;2022-11-14T16:34:23;11.95;;;5.07;;
75152;SDS011;63734;45.218;36.708;2022-11-14T16:37:12;10.30;;;4.15;;
75152;SDS011;63734;45.218;36.708;2022-11-14T16:39:57;5.30;;;3.30;;
75152;SDS011;63734;45.218;36.708;2022-11-14T16:42:41;5.13;;;2.58;;
75152;SDS011;63734;45.218;36.708;2022-11-14T16:45:26;10.50;;;4.07;;
75152;SDS011;63734;45.218;36.708;2022-11-14T16:48:12;12.63;;;6.35;;
75152;SDS011;63734;45.218;36.708;2022-11-14T16:50:59;16.42;;;6.25;;
75152;SDS011;63734;45.218;36.708;2022-11-14T16:53:45;15.32;;;6.50;;
75152;SDS011;63734;45.218;36.708;2022-11-14T16:56:30;15.05;;;5.30;;
75152;SDS011;63734;45.218;36.708;2022-11-14T16:59:16;13.98;;;5.68;;
75152;SDS011;63734;45.218;36.708;2022-11-14T17:02:00;10.10;;;5.07;;
75152;SDS011;63734;45.218;36.708;2022-11-14T17:04:45;9.07;;;4.15;;
75152;SDS011;63734;45.218;36.708;2022-11-14T17:07:29;9.88;;;4.97;;
75152;SDS011;63734;45.218;36.708;2022-11-14T17:10:15;6.32;;;2.92;;
75152;SDS011;63734;45.218;36.708;2022-11-14T17:13:00;10.13;;;3.55;;
75152;SDS011;63734;45.218;36.708;2022-11-14T17:15:44;5.95;;;2.88;;
75152;SDS011;63734;45.218;36.708;2022-11-14T17:18:29;5.65;;;2.47;;
75152;SDS011;63734;45.218;36.708;2022-11-14T17:21:14;6.78;;;3.30;;
75152;SDS011;63734;45.218;36.708;2022-11-14T17:24:00;8.85;;;3.53;;
75152;SDS011;63734;45.218;36.708;2022-11-14T17:26:45;6.75;;;3.22;;
75152;SDS011;63734;45.218;36.708;2022-11-14T17:29:30;4.43;;;2.95;;
75152;SDS011;63734;45.218;36.708;2022-11-14T17:32:14;4.50;;;2.58;;
75152;SDS011;63734;45.218;36.708;2022-11-14T17:34:59;6.03;;;2.90;;
75152;SDS011;63734;45.218;36.708;2022-11-14T17:37:44;3.60;;;2.38;;
75152;SDS011;63734;45.218;36.708;2022-11-14T17:40:28;5.30;;;2.72;;
75152;SDS011;63734;45.218;36.708;2022-11-14T17:43:14;5.95;;;2.88;;
75152;SDS011;63734;45.218;36.708;2022-11-14T17:46:00;4.97;;;2.17;;
75152;SDS011;63734;45.218;36.708;2022-11-14T17:48:46;4.53;;;2.70;;
75152;SDS011;63734;45.218;36.708;2022-11-14T17:51:32;7.63;;;2.95;;
75152;SDS011;63734;45.218;36.708;2022-11-14T17:54:16;4.20;;;1.88;;
75152;SDS011;63734;45.218;36.708;2022-11-14T17:57:00;2.70;;;1.98;;
75152;SDS011;63734;45.218;36.708;2022-11-14T17:59:45;5.25;;;2.25;;